Home > Products > Valid Products > TAF

000
FTUS44 KMRX 271123
TAFCHA
TAF
KCHA 271123Z 2712/2812 00000KT P6SM SCT250
     FM271500 02005KT P6SM FEW050
     FM280100 00000KT P6SM SKC=



000
FTUS44 KMRX 271123
TAFTRI
TAF
KTRI 271123Z 2712/2812 00000KT P6SM SCT250
     FM271500 27004KT P6SM FEW050
     FM280100 00000KT P6SM SKC
      TEMPO 2808/2812 4SM BR=



000
FTUS44 KMRX 271123
TAFTYS
TAF
KTYS 271123Z 2712/2812 00000KT P6SM SCT250
     FM271500 03005KT P6SM FEW050
     FM280100 00000KT P6SM SKC=



000
FTUS44 KMRX 271123
TAFTYS
TAF
KTYS 271123Z 2712/2812 00000KT P6SM SCT250
     FM271500 03005KT P6SM FEW050
     FM280100 00000KT P6SM SKC=



000
FTUS44 KMRX 271123
TAFTRI
TAF
KTRI 271123Z 2712/2812 00000KT P6SM SCT250
     FM271500 27004KT P6SM FEW050
     FM280100 00000KT P6SM SKC
      TEMPO 2808/2812 4SM BR=



000
FTUS44 KMRX 271123
TAFCHA
TAF
KCHA 271123Z 2712/2812 00000KT P6SM SCT250
     FM271500 02005KT P6SM FEW050
     FM280100 00000KT P6SM SKC=



000
FTUS44 KMRX 270521
TAFTRI
TAF
KTRI 270521Z 2706/2806 00000KT P6SM SKC
      TEMPO 2708/2712 4SM BR
     FM271500 27004KT P6SM FEW050
     FM280100 00000KT P6SM SKC=



000
FTUS44 KMRX 270521
TAFTYS
TAF
KTYS 270521Z 2706/2806 00000KT P6SM SKC
     FM271500 01005KT P6SM FEW050
     FM280100 00000KT P6SM SKC=



000
FTUS44 KMRX 270521
TAFCHA
TAF
KCHA 270521Z 2706/2806 00000KT P6SM SKC
     FM271500 02005KT P6SM FEW050
     FM280100 00000KT P6SM SKC=



000
FTUS44 KMRX 270521
TAFTRI
TAF
KTRI 270521Z 2706/2806 00000KT P6SM SKC
      TEMPO 2708/2712 4SM BR
     FM271500 27004KT P6SM FEW050
     FM280100 00000KT P6SM SKC=



000
FTUS44 KMRX 270521
TAFCHA
TAF
KCHA 270521Z 2706/2806 00000KT P6SM SKC
     FM271500 02005KT P6SM FEW050
     FM280100 00000KT P6SM SKC=



000
FTUS44 KMRX 270521
TAFTYS
TAF
KTYS 270521Z 2706/2806 00000KT P6SM SKC
     FM271500 01005KT P6SM FEW050
     FM280100 00000KT P6SM SKC=



000
FTUS44 KMRX 262326
TAFCHA
TAF
KCHA 262326Z 2700/2724 VRB03KT P6SM SCT050
     FM270200 00000KT P6SM SKC
     FM271500 VRB03KT P6SM FEW050=



000
FTUS44 KMRX 262326
TAFTYS
TAF
KTYS 262326Z 2700/2724 VRB05KT P6SM SCT050
     FM270200 00000KT P6SM SKC
     FM271500 03003KT P6SM FEW050=



000
FTUS44 KMRX 262326
TAFTRI
TAF
KTRI 262326Z 2700/2724 32005KT P6SM FEW050
     FM270200 00000KT P6SM SKC
      TEMPO 2708/2712 4SM BR
     FM271500 27004KT P6SM FEW050=



000
FTUS44 KMRX 262326
TAFTRI
TAF
KTRI 262326Z 2700/2724 32005KT P6SM FEW050
     FM270200 00000KT P6SM SKC
      TEMPO 2708/2712 4SM BR
     FM271500 27004KT P6SM FEW050=



000
FTUS44 KMRX 262326
TAFCHA
TAF
KCHA 262326Z 2700/2724 VRB03KT P6SM SCT050
     FM270200 00000KT P6SM SKC
     FM271500 VRB03KT P6SM FEW050=



000
FTUS44 KMRX 262326
TAFTYS
TAF
KTYS 262326Z 2700/2724 VRB05KT P6SM SCT050
     FM270200 00000KT P6SM SKC
     FM271500 03003KT P6SM FEW050=



000
FTUS44 KMRX 261727
TAFTYS
TAF
KTYS 261727Z 2618/2718 VRB03KT P6SM SCT050 SCT250
     FM270100 29002KT P6SM SKC
     FM271300 13003KT P6SM SCT250=



000
FTUS44 KMRX 261727
TAFCHA
TAF
KCHA 261727Z 2618/2718 15003KT P6SM SCT045 SCT250
     FM270300 00000KT P6SM SKC
     FM271300 12003KT P6SM SCT250=



000
FTUS44 KMRX 261727
TAFTRI
TAF
KTRI 261727Z 2618/2718 VRB03KT P6SM SCT250
     FM270600 00000KT 4SM BR SKC
     FM271300 15003KT P6SM SCT250=



000
FTUS44 KMRX 261727
TAFTYS
TAF
KTYS 261727Z 2618/2718 VRB03KT P6SM SCT050 SCT250
     FM270100 29002KT P6SM SKC
     FM271300 13003KT P6SM SCT250=



000
FTUS44 KMRX 261727
TAFCHA
TAF
KCHA 261727Z 2618/2718 15003KT P6SM SCT045 SCT250
     FM270300 00000KT P6SM SKC
     FM271300 12003KT P6SM SCT250=



000
FTUS44 KMRX 261727
TAFTRI
TAF
KTRI 261727Z 2618/2718 VRB03KT P6SM SCT250
     FM270600 00000KT 4SM BR SKC
     FM271300 15003KT P6SM SCT250=



000
FTUS44 KMRX 261120
TAFCHA
TAF
KCHA 261120Z 2612/2712 15003KT P6SM SCT045 SCT250=



000
FTUS44 KMRX 261120
TAFTYS
TAF
KTYS 261120Z 2612/2712 VRB03KT P6SM SCT050 SCT250=



000
FTUS44 KMRX 261120
TAFTRI
TAF
KTRI 261120Z 2612/2712 VRB03KT P6SM SCT050 SCT250=



000
FTUS44 KMRX 261120
TAFCHA
TAF
KCHA 261120Z 2612/2712 15003KT P6SM SCT045 SCT250=



000
FTUS44 KMRX 261120
TAFTYS
TAF
KTYS 261120Z 2612/2712 VRB03KT P6SM SCT050 SCT250=



000
FTUS44 KMRX 261120
TAFTRI
TAF
KTRI 261120Z 2612/2712 VRB03KT P6SM SCT050 SCT250=



000
FTUS44 KMRX 260536
TAFTRI
TAF
KTRI 260536Z 2606/2706 00000KT P6SM SCT250
     FM260900 00000KT 5SM BR SKC
     FM261200 VRB03KT P6SM SKC=



000
FTUS44 KMRX 260536
TAFTYS
TAF
KTYS 260536Z 2606/2706 23004KT P6SM FEW070 SCT250
     FM260900 00000KT 4SM BR SCT250
     FM261400 VRB03KT P6SM SCT050 SCT250=



000
FTUS44 KMRX 260536
TAFTYS
TAF
KTYS 260536Z 2606/2706 23004KT P6SM FEW070 SCT250
     FM260900 00000KT 4SM BR SCT250
     FM261400 VRB03KT P6SM SCT050 SCT250=



000
FTUS44 KMRX 260536
TAFCHA
TAF
KCHA 260536Z 2606/2706 20004KT P6SM BKN040 BKN080
     FM260900 00000KT P6SM SCT050 BKN080
     FM261500 VRB03KT P6SM FEW060 SCT250=



000
FTUS44 KMRX 260536
TAFTRI
TAF
KTRI 260536Z 2606/2706 00000KT P6SM SCT250
     FM260900 00000KT 5SM BR SKC
     FM261200 VRB03KT P6SM SKC=



000
FTUS44 KMRX 260536
TAFCHA
TAF
KCHA 260536Z 2606/2706 20004KT P6SM BKN040 BKN080
     FM260900 00000KT P6SM SCT050 BKN080
     FM261500 VRB03KT P6SM FEW060 SCT250=



000
FTUS44 KMRX 252337
TAFTRI
TAF
KTRI 252337Z 2600/2624 00000KT P6SM SCT250
     FM260900 00000KT 5SM BR SKC
     FM261200 VRB03KT P6SM SKC=



000
FTUS44 KMRX 252337
TAFCHA
TAF
KCHA 252337Z 2600/2624 00000KT P6SM SCT250
     FM261500 VRB03KT P6SM FEW060 SCT250=



000
FTUS44 KMRX 252337
TAFTYS
TAF
KTYS 252337Z 2600/2624 VRB03KT P6SM SCT250=



000
FTUS44 KMRX 252337
TAFCHA
TAF
KCHA 252337Z 2600/2624 00000KT P6SM SCT250
     FM261500 VRB03KT P6SM FEW060 SCT250=



000
FTUS44 KMRX 252337
TAFTRI
TAF
KTRI 252337Z 2600/2624 00000KT P6SM SCT250
     FM260900 00000KT 5SM BR SKC
     FM261200 VRB03KT P6SM SKC=



000
FTUS44 KMRX 252337
TAFTYS
TAF
KTYS 252337Z 2600/2624 VRB03KT P6SM SCT250=



000
FTUS44 KMRX 251832 AAA
TAFTYS
TAF AMD
KTYS 251832Z 2519/2618 05004KT P6SM SCT030 BKN050
     FM252100 05005KT P6SM SCT040 SCT250
     FM260200 00000KT P6SM SCT250
     FM261300 07004KT P6SM SKC=



000
FTUS44 KMRX 251832 AAA
TAFTYS
TAF AMD
KTYS 251832Z 2519/2618 05004KT P6SM SCT030 BKN050
     FM252100 05005KT P6SM SCT040 SCT250
     FM260200 00000KT P6SM SCT250
     FM261300 07004KT P6SM SKC=



000
FTUS44 KMRX 251725
TAFTYS
TAF
KTYS 251725Z 2518/2618 05004KT P6SM BKN025 OVC035
     FM252100 05005KT P6SM SCT040 SCT250
     FM260200 00000KT P6SM SCT250
     FM261300 07004KT P6SM SKC=



000
FTUS44 KMRX 251725
TAFCHA
TAF
KCHA 251725Z 2518/2618 15004KT P6SM FEW030 BKN060
     FM260100 00000KT P6SM BKN250
     FM261200 08004KT P6SM SKC=



000
FTUS44 KMRX 251725
TAFTRI
TAF
KTRI 251725Z 2518/2618 06003KT P6SM SCT040
     FM260100 00000KT P6SM SCT250
     FM260900 00000KT 4SM BR SKC
      TEMPO 2609/2612 1SM BR SCT001
     FM261200 06004KT P6SM SKC=



000
FTUS44 KMRX 251725
TAFCHA
TAF
KCHA 251725Z 2518/2618 15004KT P6SM FEW030 BKN060
     FM260100 00000KT P6SM BKN250
     FM261200 08004KT P6SM SKC=



000
FTUS44 KMRX 251725
TAFTRI
TAF
KTRI 251725Z 2518/2618 06003KT P6SM SCT040
     FM260100 00000KT P6SM SCT250
     FM260900 00000KT 4SM BR SKC
      TEMPO 2609/2612 1SM BR SCT001
     FM261200 06004KT P6SM SKC=



000
FTUS44 KMRX 251725
TAFTYS
TAF
KTYS 251725Z 2518/2618 05004KT P6SM BKN025 OVC035
     FM252100 05005KT P6SM SCT040 SCT250
     FM260200 00000KT P6SM SCT250
     FM261300 07004KT P6SM SKC=



000
FTUS44 KMRX 251406 AAA
TAFTYS
TAF AMD
KTYS 251406Z 2514/2612 05004KT P6SM SCT030 BKN060
     FM251800 05005KT P6SM SCT060 SCT250
     FM260100 VRB02KT P6SM SCT250=



000
FTUS44 KMRX 251406 AAA
TAFTYS
TAF AMD
KTYS 251406Z 2514/2612 05004KT P6SM SCT030 BKN060
     FM251800 05005KT P6SM SCT060 SCT250
     FM260100 VRB02KT P6SM SCT250=



000
FTUS44 KMRX 251121
TAFTRI
TAF
KTRI 251121Z 2512/2612 00000KT P6SM SCT250
     FM251500 08003KT P6SM SCT050
     FM260100 00000KT P6SM SCT250
     FM260900 00000KT 4SM BR SKC=



000
FTUS44 KMRX 251121
TAFTYS
TAF
KTYS 251121Z 2512/2612 03004KT P6SM BKN025 BKN050
     FM251500 05004KT P6SM SCT030 BKN060
     FM251800 05005KT P6SM SCT060 SCT250
     FM260100 VRB02KT P6SM SCT250=



000
FTUS44 KMRX 251121
TAFTYS
TAF
KTYS 251121Z 2512/2612 03004KT P6SM BKN025 BKN050
     FM251500 05004KT P6SM SCT030 BKN060
     FM251800 05005KT P6SM SCT060 SCT250
     FM260100 VRB02KT P6SM SCT250=



000
FTUS44 KMRX 251121
TAFTRI
TAF
KTRI 251121Z 2512/2612 00000KT P6SM SCT250
     FM251500 08003KT P6SM SCT050
     FM260100 00000KT P6SM SCT250
     FM260900 00000KT 4SM BR SKC=



000
FTUS44 KMRX 251121
TAFCHA
TAF
KCHA 251121Z 2512/2612 18004KT P6SM SCT025 BKN050
     FM251500 15004KT P6SM SCT060
     FM260100 00000KT P6SM BKN250=



000
FTUS44 KMRX 251121
TAFCHA
TAF
KCHA 251121Z 2512/2612 18004KT P6SM SCT025 BKN050
     FM251500 15004KT P6SM SCT060
     FM260100 00000KT P6SM BKN250=



000
FTUS44 KMRX 250523
TAFTRI
TAF
KTRI 250523Z 2506/2606 00000KT P6SM SCT250
     FM251500 08003KT P6SM SCT050
     FM260100 00000KT P6SM SCT250=



000
FTUS44 KMRX 250523
TAFTYS
TAF
KTYS 250523Z 2506/2606 VRB04KT P6SM BKN050
     FM251300 VRB04KT P6SM SCT050
     FM260100 VRB02KT P6SM SCT250=



000
FTUS44 KMRX 250523
TAFCHA
TAF
KCHA 250523Z 2506/2606 VRB02KT P6SM BKN060
     FM251500 VRB04KT P6SM SCT060
     FM260100 00000KT P6SM SCT250=



000
FTUS44 KMRX 250523
TAFTRI
TAF
KTRI 250523Z 2506/2606 00000KT P6SM SCT250
     FM251500 08003KT P6SM SCT050
     FM260100 00000KT P6SM SCT250=



000
FTUS44 KMRX 250523
TAFCHA
TAF
KCHA 250523Z 2506/2606 VRB02KT P6SM BKN060
     FM251500 VRB04KT P6SM SCT060
     FM260100 00000KT P6SM SCT250=



000
FTUS44 KMRX 250523
TAFTYS
TAF
KTYS 250523Z 2506/2606 VRB04KT P6SM BKN050
     FM251300 VRB04KT P6SM SCT050
     FM260100 VRB02KT P6SM SCT250=



000
FTUS44 KMRX 242320
TAFTRI
TAF
KTRI 242320Z 2500/2524 06005KT P6SM SCT070 BKN250
     FM250100 00000KT P6SM SCT250
     FM250600 00000KT 3SM BR SCT060
     FM250800 00000KT 1SM BR SCT004 SCT060
     FM251300 VRB03KT P6SM FEW035
     FM251600 07004KT P6SM SCT050=



000
FTUS44 KMRX 242320
TAFTYS
TAF
KTYS 242320Z 2500/2524 04003KT P6SM SCT090 BKN250
     FM250800 02003KT 6SM BR BKN060
     FM251300 VRB03KT P6SM SCT050 SCT250=



000
FTUS44 KMRX 242320
TAFCHA
TAF
KCHA 242320Z 2500/2524 12003KT P6SM VCTS SCT035CB BKN070
     FM250200 03003KT P6SM FEW045 BKN080
     FM251500 VRB04KT P6SM VCTS BKN050CB
     FM252000 04003KT P6SM SCT060 SCT250=



000
FTUS44 KMRX 242320
TAFTYS
TAF
KTYS 242320Z 2500/2524 04003KT P6SM SCT090 BKN250
     FM250800 02003KT 6SM BR BKN060
     FM251300 VRB03KT P6SM SCT050 SCT250=



000
FTUS44 KMRX 242320
TAFCHA
TAF
KCHA 242320Z 2500/2524 12003KT P6SM VCTS SCT035CB BKN070
     FM250200 03003KT P6SM FEW045 BKN080
     FM251500 VRB04KT P6SM VCTS BKN050CB
     FM252000 04003KT P6SM SCT060 SCT250=



000
FTUS44 KMRX 242320
TAFTRI
TAF
KTRI 242320Z 2500/2524 06005KT P6SM SCT070 BKN250
     FM250100 00000KT P6SM SCT250
     FM250600 00000KT 3SM BR SCT060
     FM250800 00000KT 1SM BR SCT004 SCT060
     FM251300 VRB03KT P6SM FEW035
     FM251600 07004KT P6SM SCT050=



000
FTUS44 KMRX 241723
TAFCHA
TAF
KCHA 241723Z 2418/2518 01007KT P6SM VCTS SCT035CB BKN070
      TEMPO 2418/2419 BKN030CB
     FM250100 03004KT P6SM FEW030 BKN060
     FM251500 03006KT P6SM BKN050=



000
FTUS44 KMRX 241723
TAFTRI
TAF
KTRI 241723Z 2418/2518 06005KT P6SM SCT045
     FM250100 00000KT P6SM SCT250
     FM250600 00000KT 3SM BR SCT060
     FM250800 00000KT 1 1/2SM BR FEW020 SCT060
     FM251300 VRB04KT P6SM FEW045=



000
FTUS44 KMRX 241723
TAFTYS
TAF
KTYS 241723Z 2418/2518 01005KT P6SM SCT050 BKN250
     FM250100 VRB03KT P6SM SCT060
     FM250800 VRB03KT 5SM BR BKN060
     FM251300 03004KT P6SM BKN050=



000
FTUS44 KMRX 241723
TAFTYS
TAF
KTYS 241723Z 2418/2518 01005KT P6SM SCT050 BKN250
     FM250100 VRB03KT P6SM SCT060
     FM250800 VRB03KT 5SM BR BKN060
     FM251300 03004KT P6SM BKN050=



000
FTUS44 KMRX 241723
TAFTRI
TAF
KTRI 241723Z 2418/2518 06005KT P6SM SCT045
     FM250100 00000KT P6SM SCT250
     FM250600 00000KT 3SM BR SCT060
     FM250800 00000KT 1 1/2SM BR FEW020 SCT060
     FM251300 VRB04KT P6SM FEW045=



000
FTUS44 KMRX 241723
TAFCHA
TAF
KCHA 241723Z 2418/2518 01007KT P6SM VCTS SCT035CB BKN070
      TEMPO 2418/2419 BKN030CB
     FM250100 03004KT P6SM FEW030 BKN060
     FM251500 03006KT P6SM BKN050=



    US Dept of Commerce
    National Oceanic and Atmospheric Administration
    National Weather Service
    1325 East West Highway
    Silver Spring, MD 20910
    Page Author: NWS Internet Services Team
Disclaimer
Information Quality
Credits
Glossary
Privacy Policy
Freedom of Information Act (FOIA)
About Us
Career Opportunities